Time;durP1;ratioP1;P1;durP2;ratioP2;P2;SDS_P1;SDS_P2;PMS_P1;PMS_P2;Temp;Humidity;BMP_temperature;BMP_pressure;BME280_temperature;BME280_humidity;BME280_pressure;Samples;Min_cycle;Max_cycle;Signal;HPM_P1;HPM_P2
2022/03/21 00:01:11;;;;;;;84.78;54.78;;;5.50;99.90;;;;;;5011470;28;20056;-37
2022/03/21 00:03:37;;;;;;;82.63;53.55;;;5.50;99.90;;;;;;5011422;28;20065;-37
2022/03/21 00:06:05;;;;;;;75.88;49.42;;;5.50;99.90;;;;;;5011674;28;20077;-37
2022/03/21 00:08:31;;;;;;;77.97;52.50;;;5.50;99.90;;;;;;5013266;28;20505;-38
2022/03/21 00:10:59;;;;;;;80.63;52.20;;;5.50;99.90;;;;;;5015317;28;20121;-37
2022/03/21 00:13:26;;;;;;;73.00;47.75;;;5.50;99.90;;;;;;5015023;28;20042;-38
2022/03/21 00:15:53;;;;;;;73.50;46.83;;;5.50;99.90;;;;;;5013407;28;20046;-37
2022/03/21 00:18:20;;;;;;;86.82;54.88;;;5.50;99.90;;;;;;5013685;28;20556;-38
2022/03/21 00:20:48;;;;;;;89.70;55.45;;;5.50;99.90;;;;;;5013297;28;20140;-37
2022/03/21 00:23:14;;;;;;;82.53;54.13;;;5.60;99.90;;;;;;5011569;28;20052;-37
2022/03/21 00:25:41;;;;;;;80.72;52.67;;;5.50;99.90;;;;;;5012892;28;20457;-38
2022/03/21 00:28:10;;;;;;;83.07;54.85;;;5.50;99.90;;;;;;5014106;28;20046;-38
2022/03/21 00:30:37;;;;;;;78.97;52.30;;;5.50;99.90;;;;;;5014222;28;20561;-38
2022/03/21 00:33:04;;;;;;;65.32;44.28;;;5.50;99.90;;;;;;5009917;28;20474;-37
2022/03/21 00:35:31;;;;;;;83.65;52.67;;;5.50;99.90;;;;;;5014683;28;20052;-37
2022/03/21 00:37:58;;;;;;;79.22;49.92;;;5.50;99.90;;;;;;5013379;28;20050;-37
2022/03/21 00:40:25;;;;;;;83.38;51.90;;;5.50;99.90;;;;;;5014923;28;20363;-37
2022/03/21 00:42:52;;;;;;;78.55;50.63;;;5.50;99.90;;;;;;5013983;28;20046;-37
2022/03/21 00:45:21;;;;;;;74.20;50.00;;;5.50;99.90;;;;;;5013285;28;20116;-37
2022/03/21 00:47:49;;;;;;;77.55;51.22;;;5.50;99.90;;;;;;5013779;28;20048;-37
2022/03/21 00:50:16;;;;;;;79.57;51.38;;;5.50;99.90;;;;;;5013583;28;20061;-37
2022/03/21 00:52:44;;;;;;;69.03;46.20;;;5.50;99.90;;;;;;5013686;28;20081;-37
2022/03/21 00:55:11;;;;;;;80.65;51.03;;;5.40;99.90;;;;;;5013974;28;20140;-37
2022/03/21 00:57:40;;;;;;;84.32;55.03;;;5.40;99.90;;;;;;5013850;28;20088;-37
2022/03/21 01:00:09;;;;;;;72.65;47.55;;;5.40;99.90;;;;;;5013556;28;20045;-38
2022/03/21 01:02:37;;;;;;;84.20;54.90;;;5.40;99.90;;;;;;5022422;28;20458;-37
2022/03/21 01:05:04;;;;;;;87.65;55.30;;;5.40;99.90;;;;;;5014273;28;20585;-37
2022/03/21 01:07:31;;;;;;;83.28;55.00;;;5.40;99.90;;;;;;5012539;28;20050;-37
2022/03/21 01:09:58;;;;;;;80.97;52.85;;;5.40;99.90;;;;;;5012764;28;20517;-38
2022/03/21 01:12:25;;;;;;;84.35;53.08;;;5.40;99.90;;;;;;5013565;28;20042;-37
2022/03/21 01:14:51;;;;;;;84.05;52.10;;;5.40;99.90;;;;;;5012937;28;20041;-38
2022/03/21 01:17:18;;;;;;;83.78;53.95;;;5.40;99.90;;;;;;5013994;28;20381;-38
2022/03/21 01:19:46;;;;;;;87.43;54.15;;;5.40;99.90;;;;;;5011768;28;20058;-37
2022/03/21 01:22:13;;;;;;;82.38;52.13;;;5.40;99.90;;;;;;5013687;28;20374;-37
2022/03/21 01:24:41;;;;;;;79.72;51.85;;;5.40;99.90;;;;;;5013757;28;20053;-37
2022/03/21 01:27:08;;;;;;;77.07;48.33;;;5.40;99.90;;;;;;5011632;28;20381;-37
2022/03/21 01:29:35;;;;;;;74.65;48.15;;;5.40;99.90;;;;;;5012341;28;20125;-37
2022/03/21 01:32:01;;;;;;;73.85;47.70;;;5.40;99.90;;;;;;5010618;28;20038;-37
2022/03/21 01:34:28;;;;;;;77.35;49.22;;;5.40;99.90;;;;;;5014147;28;20045;-37
2022/03/21 01:36:56;;;;;;;70.05;43.60;;;5.40;99.90;;;;;;5013124;28;20038;-37
2022/03/21 01:39:23;;;;;;;73.85;45.03;;;5.40;99.90;;;;;;5012962;28;20052;-37
2022/03/21 01:41:50;;;;;;;72.63;45.30;;;5.40;99.90;;;;;;5011619;28;20488;-37
2022/03/21 01:44:17;;;;;;;71.55;45.33;;;5.30;99.90;;;;;;5011870;28;20046;-37
2022/03/21 01:46:44;;;;;;;69.13;45.17;;;5.30;99.90;;;;;;5010965;28;20084;-37
2022/03/21 01:49:11;;;;;;;60.35;41.42;;;5.30;99.90;;;;;;5012610;28;20058;-39
2022/03/21 01:51:38;;;;;;;56.17;36.95;;;5.20;99.90;;;;;;5012615;28;20124;-37
2022/03/21 01:56:51;;;;;;;60.17;40.17;;;5.20;99.90;;;;;;5008736;28;20137;-38
2022/03/21 01:59:19;;;;;;;62.22;38.92;;;5.20;99.90;;;;;;5013008;28;20128;-38
2022/03/21 02:01:46;;;;;;;66.65;40.17;;;5.10;99.90;;;;;;5012948;28;20057;-38
2022/03/21 02:04:12;;;;;;;63.33;38.25;;;5.10;99.90;;;;;;5011740;28;20389;-37
2022/03/21 02:06:39;;;;;;;56.53;36.25;;;5.10;99.90;;;;;;5012940;28;20088;-37
2022/03/21 02:09:08;;;;;;;55.92;35.58;;;5.00;99.90;;;;;;5027762;28;20394;-37
2022/03/21 02:11:34;;;;;;;54.78;36.15;;;5.00;99.90;;;;;;5011721;28;20046;-38
2022/03/21 02:14:03;;;;;;;55.85;34.60;;;4.90;99.90;;;;;;5012834;28;20503;-38
2022/03/21 02:16:32;;;;;;;56.97;34.53;;;4.90;99.90;;;;;;5012281;28;20068;-37
2022/03/21 02:18:59;;;;;;;61.08;35.58;;;4.90;99.90;;;;;;5011895;28;20540;-38
2022/03/21 02:21:29;;;;;;;55.72;34.58;;;4.80;99.90;;;;;;5012425;28;20045;-38
2022/03/21 02:23:57;;;;;;;59.65;35.92;;;4.80;99.90;;;;;;5010431;28;20042;-38
2022/03/21 02:26:25;;;;;;;58.85;35.00;;;4.70;99.90;;;;;;5011537;28;20132;-37
2022/03/21 02:28:52;;;;;;;60.65;35.88;;;4.70;99.90;;;;;;5012223;28;20046;-38
2022/03/21 02:31:19;;;;;;;61.03;35.17;;;4.70;99.90;;;;;;5012128;28;20045;-37
2022/03/21 02:33:46;;;;;;;53.20;33.70;;;4.70;99.90;;;;;;5010368;28;20142;-39
2022/03/21 02:36:13;;;;;;;59.03;33.17;;;4.70;99.90;;;;;;5012573;28;20045;-39
2022/03/21 02:38:40;;;;;;;57.97;32.45;;;4.70;99.90;;;;;;5008026;28;20481;-37
2022/03/21 02:41:06;;;;;;;47.97;30.38;;;4.60;99.90;;;;;;5019967;28;20132;-37
2022/03/21 02:43:48;;;;;;;50.58;28.88;;;4.60;99.90;;;;;;5011209;28;20050;-38
2022/03/21 02:46:17;;;;;;;47.47;30.25;;;4.60;99.90;;;;;;5004013;28;20100;-38
2022/03/21 02:48:44;;;;;;;46.05;28.10;;;4.60;99.90;;;;;;5011899;28;20478;-37
2022/03/21 02:51:11;;;;;;;46.85;27.52;;;4.60;99.90;;;;;;5011675;28;20144;-37
2022/03/21 02:53:38;;;;;;;45.80;26.25;;;4.60;99.90;;;;;;5012611;28;20041;-38
2022/03/21 02:56:05;;;;;;;50.47;27.17;;;4.60;99.90;;;;;;5012267;28;20125;-38
2022/03/21 02:58:31;;;;;;;44.25;25.63;;;4.60;99.90;;;;;;5011964;28;20478;-38
2022/03/21 03:01:07;;;;;;;45.10;25.08;;;4.50;99.90;;;;;;5010346;28;20038;-39
2022/03/21 03:03:34;;;;;;;38.60;23.98;;;4.60;99.90;;;;;;5004714;28;20128;-39
2022/03/21 03:06:02;;;;;;;40.38;23.58;;;4.50;99.90;;;;;;5011192;28;20064;-38
2022/03/21 03:08:28;;;;;;;36.45;21.08;;;4.50;99.90;;;;;;5010938;28;20045;-39
2022/03/21 03:10:55;;;;;;;35.47;20.85;;;4.50;99.90;;;;;;5006836;28;20553;-39
2022/03/21 03:13:22;;;;;;;29.70;19.35;;;4.50;99.90;;;;;;5008332;28;20050;-39
2022/03/21 03:15:48;;;;;;;32.83;20.27;;;4.40;99.90;;;;;;5012125;28;20056;-39
2022/03/21 03:18:16;;;;;;;35.92;22.30;;;4.40;99.90;;;;;;5009381;28;20054;-39
2022/03/21 03:20:45;;;;;;;33.25;20.83;;;4.40;99.90;;;;;;5011666;28;20046;-39
2022/03/21 03:23:13;;;;;;;34.30;20.75;;;4.30;99.90;;;;;;5010327;28;20050;-40
2022/03/21 03:25:40;;;;;;;32.65;21.23;;;4.30;99.90;;;;;;5010352;28;20044;-39
2022/03/21 03:28:06;;;;;;;34.55;22.23;;;4.20;99.90;;;;;;5011934;28;20046;-39
2022/03/21 03:30:33;;;;;;;32.03;21.27;;;4.20;99.90;;;;;;5011966;28;20449;-39
2022/03/21 03:33:00;;;;;;;36.13;19.45;;;4.20;99.90;;;;;;5011022;28;20050;-39
2022/03/21 03:35:28;;;;;;;34.72;20.30;;;4.10;99.90;;;;;;5010715;28;20072;-40
2022/03/21 03:37:55;;;;;;;32.38;18.58;;;4.10;99.90;;;;;;5011070;28;20038;-40
2022/03/21 03:40:22;;;;;;;31.27;19.73;;;4.00;99.90;;;;;;5011551;28;20050;-39
2022/03/21 03:42:49;;;;;;;29.52;19.48;;;4.00;99.90;;;;;;5012431;28;20104;-40
2022/03/21 03:45:15;;;;;;;30.27;18.38;;;3.90;99.90;;;;;;5013540;28;20046;-40
2022/03/21 03:47:42;;;;;;;33.45;20.92;;;3.90;99.90;;;;;;5014822;28;20046;-39
2022/03/21 03:50:09;;;;;;;34.10;20.92;;;3.90;99.90;;;;;;5014593;28;20050;-40
2022/03/21 03:52:38;;;;;;;30.40;19.27;;;3.80;99.90;;;;;;5014502;28;20270;-40
2022/03/21 03:55:05;;;;;;;33.72;18.67;;;3.80;99.90;;;;;;5015201;28;20044;-40
2022/03/21 03:57:32;;;;;;;35.60;21.38;;;3.80;99.90;;;;;;5015368;28;20085;-40
2022/03/21 03:59:59;;;;;;;35.65;19.58;;;3.70;99.90;;;;;;5015613;28;20056;-40
2022/03/21 04:02:25;;;;;;;36.85;21.35;;;3.70;99.90;;;;;;5014954;28;20042;-39
2022/03/21 04:04:52;;;;;;;37.33;19.85;;;3.70;99.90;;;;;;5007722;28;20393;-40
2022/03/21 04:07:19;;;;;;;39.30;20.75;;;3.70;99.90;;;;;;5014176;28;20045;-39
2022/03/21 04:09:48;;;;;;;33.25;20.20;;;3.70;99.90;;;;;;5014766;28;20045;-39
2022/03/21 04:12:14;;;;;;;31.27;19.60;;;3.70;99.90;;;;;;5014438;28;20046;-39
2022/03/21 04:14:43;;;;;;;34.17;19.98;;;3.60;99.90;;;;;;5014797;28;20046;-40
2022/03/21 04:17:10;;;;;;;29.02;18.05;;;3.60;99.90;;;;;;5014997;28;20104;-39
2022/03/21 04:19:37;;;;;;;30.38;18.73;;;3.60;99.90;;;;;;5014391;28;20445;-39
2022/03/21 04:22:04;;;;;;;30.70;18.48;;;3.60;99.90;;;;;;5013855;28;20045;-39
2022/03/21 04:24:31;;;;;;;33.40;19.30;;;3.50;99.90;;;;;;5014247;28;20038;-40
2022/03/21 04:26:59;;;;;;;31.92;18.75;;;3.50;99.90;;;;;;5015094;28;20394;-40
2022/03/21 04:29:26;;;;;;;32.90;19.13;;;3.50;99.90;;;;;;5013433;28;20052;-40
2022/03/21 04:31:52;;;;;;;26.08;17.27;;;3.50;99.90;;;;;;5012954;28;20579;-40
2022/03/21 04:34:19;;;;;;;24.23;15.93;;;3.50;99.90;;;;;;5012973;28;20265;-39
2022/03/21 04:36:46;;;;;;;31.40;17.48;;;3.40;99.90;;;;;;5014630;28;20137;-39
2022/03/21 04:39:13;;;;;;;28.13;16.67;;;3.40;99.90;;;;;;5013988;28;20560;-39
2022/03/21 04:41:39;;;;;;;29.52;16.58;;;3.40;99.90;;;;;;5014136;28;20049;-40
2022/03/21 04:44:07;;;;;;;28.25;17.77;;;3.40;99.90;;;;;;5012960;28;20050;-39
2022/03/21 04:46:34;;;;;;;26.52;17.08;;;3.40;99.90;;;;;;5007881;28;20057;-40
2022/03/21 04:49:01;;;;;;;29.58;17.80;;;3.30;99.90;;;;;;5008624;28;20068;-39
2022/03/21 04:51:27;;;;;;;25.67;16.27;;;3.30;99.90;;;;;;5011432;28;20050;-40
2022/03/21 04:53:54;;;;;;;24.70;16.02;;;3.20;99.90;;;;;;5010608;28;20050;-39
2022/03/21 04:56:21;;;;;;;27.40;15.32;;;3.20;99.90;;;;;;5013362;28;20049;-39
2022/03/21 04:58:47;;;;;;;24.98;14.50;;;3.10;99.90;;;;;;5010401;28;20050;-39
2022/03/21 05:01:15;;;;;;;22.70;13.73;;;3.10;99.90;;;;;;5013225;28;20060;-39
2022/03/21 05:03:43;;;;;;;23.60;14.75;;;3.10;99.90;;;;;;5008598;28;20125;-39
2022/03/21 05:06:09;;;;;;;22.33;14.93;;;3.00;99.90;;;;;;5013761;28;20060;-39
2022/03/21 05:08:36;;;;;;;25.42;15.52;;;3.00;99.90;;;;;;5014029;28;20084;-39
2022/03/21 05:11:03;;;;;;;26.25;15.65;;;2.90;99.90;;;;;;5013778;28;20053;-38
2022/03/21 05:13:29;;;;;;;24.08;15.27;;;2.90;99.90;;;;;;5013678;28;20048;-39
2022/03/21 05:15:57;;;;;;;26.05;15.90;;;2.90;99.90;;;;;;5013294;28;20068;-40
2022/03/21 05:18:25;;;;;;;28.15;16.17;;;2.80;99.90;;;;;;5013050;28;20116;-40
2022/03/21 05:20:51;;;;;;;31.42;17.63;;;2.80;99.90;;;;;;5008077;28;20081;-40
2022/03/21 05:31:31;;;;;;;26.98;15.20;;;2.60;99.90;;;;;;5013168;28;20042;-40
2022/03/21 05:36:43;;;;;;;24.65;14.57;;;2.60;99.90;;;;;;5008163;28;20136;-39
2022/03/21 05:39:10;;;;;;;19.50;13.38;;;2.60;99.90;;;;;;5007398;28;20484;-39
2022/03/21 05:41:37;;;;;;;21.40;14.35;;;2.50;99.90;;;;;;5010594;28;20045;-39
2022/03/21 05:44:04;;;;;;;21.20;13.88;;;2.50;99.90;;;;;;5013256;28;20046;-40
2022/03/21 05:46:31;;;;;;;21.25;13.63;;;2.50;99.90;;;;;;5009079;28;20426;-39
2022/03/21 05:49:02;;;;;;;23.15;14.77;;;2.50;99.90;;;;;;5012092;28;20462;-39
2022/03/21 05:51:30;;;;;;;20.42;12.40;;;2.50;99.90;;;;;;5011258;28;20065;-39
2022/03/21 05:53:57;;;;;;;21.65;12.98;;;2.50;99.90;;;;;;5012969;28;20428;-39
2022/03/21 05:56:25;;;;;;;20.55;12.82;;;2.50;99.90;;;;;;5011532;28;20046;-39
2022/03/21 05:58:52;;;;;;;19.05;13.23;;;2.50;99.90;;;;;;5010534;28;20151;-39
2022/03/21 06:01:22;;;;;;;16.95;11.50;;;2.40;99.90;;;;;;5011621;28;20423;-39
2022/03/21 06:03:49;;;;;;;18.08;11.77;;;2.40;99.90;;;;;;5011077;28;20124;-39
2022/03/21 06:06:17;;;;;;;17.35;11.65;;;2.40;99.90;;;;;;5012480;28;20390;-40
2022/03/21 06:08:44;;;;;;;18.85;11.90;;;2.40;99.90;;;;;;5012560;28;20056;-39
2022/03/21 06:11:12;;;;;;;15.98;10.65;;;2.40;99.90;;;;;;5011852;28;20076;-39
2022/03/21 06:13:39;;;;;;;18.55;11.48;;;2.40;99.90;;;;;;5012992;28;20050;-39
2022/03/21 06:16:06;;;;;;;18.60;12.10;;;2.40;99.90;;;;;;5013215;28;20045;-39
2022/03/21 06:18:33;;;;;;;17.05;10.35;;;2.40;99.90;;;;;;5010090;28;20052;-40
2022/03/21 06:21:00;;;;;;;16.45;11.80;;;2.40;99.90;;;;;;5006591;28;20060;-38
2022/03/21 06:23:28;;;;;;;16.45;11.60;;;2.40;99.90;;;;;;5006198;28;20046;-39
2022/03/21 06:25:56;;;;;;;14.75;9.70;;;2.50;99.90;;;;;;4987830;28;20767;-39
2022/03/21 06:28:23;;;;;;;17.40;11.73;;;2.50;99.90;;;;;;5006478;28;20111;-40
2022/03/21 06:30:51;;;;;;;15.70;10.75;;;2.50;99.90;;;;;;5010616;28;20058;-39
2022/03/21 06:33:18;;;;;;;13.00;8.90;;;2.50;99.90;;;;;;5009133;28;20120;-40
2022/03/21 06:35:45;;;;;;;14.88;10.30;;;2.60;99.90;;;;;;5009822;28;20049;-39
2022/03/21 06:38:12;;;;;;;18.42;11.27;;;2.60;99.90;;;;;;5008460;28;20050;-39
2022/03/21 06:40:40;;;;;;;14.07;9.18;;;2.60;99.90;;;;;;5011607;28;20064;-39
2022/03/21 06:43:06;;;;;;;16.17;10.70;;;2.70;99.90;;;;;;5011426;28;20049;-39
2022/03/21 06:45:33;;;;;;;14.40;9.65;;;2.70;99.90;;;;;;5008712;28;20052;-39
2022/03/21 06:48:00;;;;;;;16.80;10.85;;;2.70;99.90;;;;;;5007055;28;20056;-39
2022/03/21 06:50:26;;;;;;;15.45;10.75;;;2.80;99.90;;;;;;5010208;28;20045;-40
2022/03/21 06:52:54;;;;;;;20.15;11.68;;;2.90;99.90;;;;;;5010520;28;20462;-40
2022/03/21 06:55:21;;;;;;;26.40;13.85;;;2.90;99.90;;;;;;5010041;28;20056;-39
2022/03/21 06:57:49;;;;;;;22.23;13.18;;;3.00;99.90;;;;;;5009268;28;20389;-40
2022/03/21 07:00:16;;;;;;;16.55;10.35;;;3.10;99.90;;;;;;5023771;28;20046;-39
2022/03/21 07:02:43;;;;;;;18.00;13.43;;;3.20;99.90;;;;;;5008405;28;20085;-39
2022/03/21 07:05:10;;;;;;;20.65;13.63;;;3.30;99.90;;;;;;5010311;28;20386;-39
2022/03/21 07:07:37;;;;;;;24.33;13.98;;;3.30;99.90;;;;;;5011025;28;20056;-39
2022/03/21 07:10:05;;;;;;;29.20;16.23;;;3.50;99.90;;;;;;5010497;28;20082;-38
2022/03/21 07:12:34;;;;;;;29.67;18.10;;;3.60;99.90;;;;;;5010641;28;20132;-38
2022/03/21 07:15:02;;;;;;;31.65;19.75;;;3.70;99.90;;;;;;5009593;28;20071;-38
2022/03/21 07:17:29;;;;;;;36.10;20.27;;;3.80;99.90;;;;;;5012065;28;20053;-39
2022/03/21 07:19:56;;;;;;;33.40;19.33;;;4.00;99.90;;;;;;5016072;28;20046;-38
2022/03/21 07:22:22;;;;;;;36.83;21.52;;;4.20;99.90;;;;;;5016576;28;20064;-38
2022/03/21 07:24:49;;;;;;;32.97;19.67;;;4.30;99.90;;;;;;5015571;28;20140;-37
2022/03/21 07:27:16;;;;;;;37.85;22.27;;;4.40;99.90;;;;;;5015100;28;20060;-38
2022/03/21 07:29:43;;;;;;;31.02;19.67;;;4.50;99.90;;;;;;5016859;28;20169;-38
2022/03/21 07:32:11;;;;;;;39.70;22.45;;;4.70;99.90;;;;;;5017298;28;20057;-38
2022/03/21 07:34:38;;;;;;;37.10;22.90;;;4.80;99.90;;;;;;5015661;28;20053;-38
2022/03/21 07:37:05;;;;;;;37.63;22.45;;;4.90;99.90;;;;;;5017619;28;20125;-38
2022/03/21 07:39:34;;;;;;;32.15;22.15;;;5.10;99.90;;;;;;5015463;28;20069;-38
2022/03/21 07:42:02;;;;;;;35.63;22.08;;;5.20;99.90;;;;;;5016688;28;20110;-38
2022/03/21 07:47:21;;;;;;;40.13;23.48;;;5.60;99.90;;;;;;5010111;28;20049;-38
2022/03/21 07:49:49;;;;;;;42.47;24.67;;;5.70;99.90;;;;;;5025330;28;20054;-38
2022/03/21 07:52:18;;;;;;;38.45;23.00;;;5.90;99.90;;;;;;5012550;28;20058;-38
2022/03/21 07:54:45;;;;;;;38.63;24.10;;;6.10;99.90;;;;;;5025424;28;20068;-38
2022/03/21 07:57:12;;;;;;;33.83;22.67;;;6.20;99.90;;;;;;5016175;28;20056;-38
2022/03/21 07:59:38;;;;;;;38.40;23.75;;;6.40;99.90;;;;;;5016936;28;20085;-38
2022/03/21 08:02:06;;;;;;;37.35;22.90;;;6.60;99.90;;;;;;5016187;28;20457;-37
2022/03/21 08:04:34;;;;;;;34.40;22.05;;;6.80;99.90;;;;;;5017083;28;20047;-37
2022/03/21 08:07:00;;;;;;;37.67;23.00;;;7.00;99.90;;;;;;5017037;28;20048;-37
2022/03/21 08:09:28;;;;;;;38.08;21.80;;;7.10;99.90;;;;;;5017200;28;20081;-38
2022/03/21 08:11:55;;;;;;;39.05;22.67;;;7.30;99.90;;;;;;5016116;28;20048;-37
2022/03/21 08:14:22;;;;;;;34.15;20.35;;;7.40;99.90;;;;;;5016865;28;20045;-38
2022/03/21 08:16:49;;;;;;;35.92;21.92;;;7.60;99.90;;;;;;5014005;28;20091;-36
2022/03/21 08:19:16;;;;;;;34.47;20.95;;;7.80;99.90;;;;;;5014783;28;20112;-38
2022/03/21 08:21:44;;;;;;;33.05;20.27;;;8.00;99.90;;;;;;5017326;28;20042;-38
2022/03/21 08:24:13;;;;;;;35.83;21.45;;;8.00;99.90;;;;;;5015587;28;20049;-37
2022/03/21 08:26:40;;;;;;;34.25;21.17;;;8.20;99.90;;;;;;5016070;28;20041;-37
2022/03/21 08:29:08;;;;;;;36.08;20.30;;;8.40;99.90;;;;;;5011389;28;20046;-38
2022/03/21 08:31:34;;;;;;;35.30;20.40;;;8.40;99.90;;;;;;5013501;28;20049;-38
2022/03/21 08:34:03;;;;;;;29.08;20.10;;;8.60;99.90;;;;;;5011681;28;20084;-38
2022/03/21 08:36:30;;;;;;;31.42;19.30;;;8.80;99.90;;;;;;5014328;28;20042;-39
2022/03/21 08:38:58;;;;;;;31.80;20.55;;;8.80;99.90;;;;;;5011624;28;20038;-39
2022/03/21 08:41:24;;;;;;;31.33;19.83;;;9.10;99.90;;;;;;5010517;28;20314;-39
2022/03/21 08:43:51;;;;;;;32.08;19.85;;;9.20;99.90;;;;;;5010054;28;20389;-38
2022/03/21 08:46:18;;;;;;;33.88;20.80;;;9.40;99.90;;;;;;5011743;28;20073;-38
2022/03/21 08:51:29;;;;;;;30.75;20.15;;;9.70;99.90;;;;;;5010452;28;20042;-38
2022/03/21 08:53:56;;;;;;;33.55;19.80;;;9.80;99.90;;;;;;5011229;28;20128;-39
2022/03/21 08:56:25;;;;;;;32.40;19.92;;;10.00;99.90;;;;;;5010423;28;20073;-38
2022/03/21 08:58:52;;;;;;;33.75;19.83;;;10.10;99.90;;;;;;5004818;28;20048;-38
2022/03/21 09:01:19;;;;;;;37.80;20.42;;;10.20;99.90;;;;;;5007456;28;20052;-38
2022/03/21 09:03:45;;;;;;;31.48;19.52;;;10.30;99.90;;;;;;5013404;28;20135;-39
2022/03/21 09:06:12;;;;;;;34.70;20.08;;;10.50;99.90;;;;;;5007410;28;20067;-39
2022/03/21 09:08:42;;;;;;;28.05;18.05;;;10.60;99.90;;;;;;5013643;28;20466;-39
2022/03/21 09:11:09;;;;;;;29.27;18.42;;;10.80;99.90;;;;;;5010234;28;20042;-39
2022/03/21 09:13:37;;;;;;;34.80;18.25;;;10.90;99.90;;;;;;5009378;28;20041;-39
2022/03/21 09:16:05;;;;;;;32.22;19.25;;;11.10;99.90;;;;;;5012007;28;20034;-39
2022/03/21 09:18:32;;;;;;;32.35;18.88;;;11.20;99.90;;;;;;5012416;28;20083;-39
2022/03/21 09:20:59;;;;;;;28.25;17.63;;;11.30;99.90;;;;;;5010402;28;20048;-39
2022/03/21 09:23:25;;;;;;;28.67;17.60;;;11.50;99.90;;;;;;5002516;28;20046;-39
2022/03/21 09:25:52;;;;;;;28.52;18.38;;;11.60;99.90;;;;;;5008145;28;20454;-39
2022/03/21 09:28:19;;;;;;;34.08;19.88;;;11.60;99.40;;;;;;5026477;28;20088;-39
2022/03/21 09:30:47;;;;;;;26.75;17.98;;;11.80;99.10;;;;;;5011106;28;20060;-39
2022/03/21 09:33:15;;;;;;;30.85;18.27;;;11.80;98.40;;;;;;5009580;28;20046;-39
2022/03/21 09:35:43;;;;;;;30.95;19.38;;;11.90;98.60;;;;;;5011639;28;20042;-39
2022/03/21 09:38:10;;;;;;;29.90;19.08;;;12.10;98.20;;;;;;5010946;28;20056;-39
2022/03/21 09:40:36;;;;;;;34.67;18.30;;;12.20;98.00;;;;;;5007362;28;20393;-39
2022/03/21 09:43:03;;;;;;;29.23;18.55;;;12.40;98.00;;;;;;5010583;28;20048;-39
2022/03/21 09:45:30;;;;;;;32.03;19.17;;;12.50;97.90;;;;;;5010959;28;20240;-39
2022/03/21 09:48:11;;;;;;;31.33;19.63;;;12.70;97.50;;;;;;5009484;28;20053;-39
2022/03/21 09:50:40;;;;;;;31.73;19.55;;;12.70;95.90;;;;;;5005776;28;20053;-39
2022/03/21 09:53:07;;;;;;;33.40;20.58;;;12.90;96.10;;;;;;5013159;28;20054;-40
2022/03/21 09:55:34;;;;;;;33.97;20.38;;;13.00;95.40;;;;;;5011595;28;20125;-40
2022/03/21 09:58:01;;;;;;;33.55;20.13;;;13.00;94.70;;;;;;5012015;28;20124;-40
2022/03/21 10:00:28;;;;;;;35.00;21.67;;;13.10;94.90;;;;;;5008303;28;20518;-41
2022/03/21 10:02:55;;;;;;;37.85;23.27;;;13.30;95.00;;;;;;5012345;28;20056;-40
2022/03/21 10:05:33;;;;;;;36.58;22.75;;;13.40;94.70;;;;;;5009337;28;20052;-41
2022/03/21 10:08:17;;;;;;;38.10;22.83;;;13.60;92.40;;;;;;4993571;28;20383;-40
2022/03/21 10:10:52;;;;;;;36.17;24.35;;;13.70;93.10;;;;;;5003918;28;20458;-40
2022/03/21 10:13:19;;;;;;;36.42;22.38;;;13.70;92.50;;;;;;5012353;28;20050;-39
2022/03/21 10:15:45;;;;;;;37.53;23.30;;;13.80;93.00;;;;;;5011967;28;20065;-40
2022/03/21 10:18:13;;;;;;;36.05;24.75;;;14.00;92.60;;;;;;5010637;28;20054;-40
2022/03/21 10:20:41;;;;;;;35.72;24.17;;;14.10;91.90;;;;;;5010437;28;20042;-40
2022/03/21 10:23:18;;;;;;;37.78;23.58;;;14.10;90.50;;;;;;5010606;28;20046;-39
2022/03/21 10:25:44;;;;;;;41.75;24.27;;;14.20;86.50;;;;;;5011101;28;20072;-42
2022/03/21 10:28:11;;;;;;;35.25;22.45;;;14.20;89.10;;;;;;5026877;28;20137;-40
2022/03/21 10:30:44;;;;;;;36.55;24.38;;;14.20;89.70;;;;;;5010738;28;20397;-40
2022/03/21 10:33:11;;;;;;;37.95;23.77;;;14.40;88.60;;;;;;5011623;28;20041;-40
2022/03/21 10:35:46;;;;;;;34.80;22.25;;;14.60;88.90;;;;;;5011544;28;20472;-40
2022/03/21 10:38:13;;;;;;;37.35;23.45;;;14.60;86.70;;;;;;5010210;28;20053;-40
2022/03/21 10:40:44;;;;;;;36.33;23.58;;;14.60;85.50;;;;;;5007740;28;20125;-40
2022/03/21 10:43:11;;;;;;;38.25;25.17;;;14.60;84.70;;;;;;5009322;28;20042;-40
2022/03/21 10:45:56;;;;;;;33.40;22.17;;;14.60;85.10;;;;;;5011569;28;20045;-40
2022/03/21 10:48:25;;;;;;;32.35;22.75;;;14.80;84.00;;;;;;4992493;28;20042;-39
2022/03/21 10:50:55;;;;;;;32.42;22.00;;;14.90;84.70;;;;;;4996313;28;20046;-40
2022/03/21 10:53:25;;;;;;;36.92;23.38;;;15.00;81.00;;;;;;5010964;28;20143;-42
2022/03/21 10:56:00;;;;;;;35.67;23.70;;;15.00;81.40;;;;;;5009033;28;20537;-40
2022/03/21 10:58:33;;;;;;;40.30;22.40;;;15.00;81.10;;;;;;5010585;28;20052;-40
2022/03/21 11:01:10;;;;;;;33.30;22.00;;;15.10;79.90;;;;;;5009173;28;20050;-42
2022/03/21 11:03:40;;;;;;;33.38;23.38;;;15.30;81.10;;;;;;5011760;28;20137;-39
2022/03/21 11:06:09;;;;;;;31.90;21.98;;;15.30;79.30;;;;;;5010330;28;20085;-40
2022/03/21 11:08:36;;;;;;;31.83;22.05;;;15.40;77.40;;;;;;5011357;28;20037;-43
2022/03/21 11:11:03;;;;;;;34.45;21.95;;;15.50;78.40;;;;;;5009818;28;20133;-41
2022/03/21 11:13:29;;;;;;;34.38;21.50;;;15.60;76.90;;;;;;5007243;28;20054;-41
2022/03/21 11:15:56;;;;;;;37.17;22.85;;;15.70;78.10;;;;;;5021313;28;20062;-41
2022/03/21 11:18:23;;;;;;;34.22;22.15;;;15.80;77.60;;;;;;5011277;28;20438;-42
2022/03/21 11:20:50;;;;;;;36.65;24.23;;;15.90;74.70;;;;;;5010060;28;20063;-41
2022/03/21 11:23:18;;;;;;;34.80;22.05;;;15.80;74.70;;;;;;5009715;28;20425;-39
2022/03/21 11:25:46;;;;;;;33.72;22.17;;;16.00;75.50;;;;;;5011023;28;20443;-39
2022/03/21 11:29:01;;;;;;;33.72;22.40;;;16.10;73.90;;;;;;5011508;28;20125;-41
2022/03/21 11:31:38;;;;;;;39.17;23.17;;;16.20;75.10;;;;;;4953881;28;20146;-41
2022/03/21 11:34:13;;;;;;;33.70;22.60;;;16.20;72.10;;;;;;5009556;28;20470;-42
2022/03/21 11:36:50;;;;;;;35.80;22.48;;;16.20;72.10;;;;;;5011642;28;20041;-40
2022/03/21 11:39:18;;;;;;;35.75;23.20;;;16.30;70.00;;;;;;5010691;28;20145;-41
2022/03/21 11:41:56;;;;;;;33.30;22.42;;;16.30;69.40;;;;;;5011783;28;20401;-42
2022/03/21 11:44:23;;;;;;;33.92;21.67;;;16.30;69.20;;;;;;5011319;28;20125;-41
2022/03/21 11:46:50;;;;;;;33.30;23.00;;;16.40;72.20;;;;;;5010161;28;20049;-41
2022/03/21 11:49:45;;;;;;;31.02;21.98;;;16.50;70.20;;;;;;5009429;28;20371;-41
2022/03/21 11:52:12;;;;;;;32.50;21.58;;;16.60;68.10;;;;;;5011453;28;20433;-40
2022/03/21 11:54:40;;;;;;;31.23;22.05;;;16.70;68.90;;;;;;5011305;28;20402;-44
2022/03/21 11:57:07;;;;;;;32.10;21.48;;;16.80;68.30;;;;;;5011435;28;20385;-40
2022/03/21 12:00:02;;;;;;;29.13;20.95;;;16.80;68.40;;;;;;5010236;28;20375;-40
2022/03/21 12:02:56;;;;;;;36.35;22.48;;;16.90;64.20;;;;;;5011695;28;20045;-41
2022/03/21 12:05:51;;;;;;;31.27;22.15;;;17.00;64.10;;;;;;5014133;28;20125;-41
2022/03/21 12:08:34;;;;;;;29.45;19.83;;;17.00;65.00;;;;;;5015635;28;20123;-41
2022/03/21 12:11:02;;;;;;;33.10;21.38;;;17.10;66.90;;;;;;5012697;28;20541;-41
2022/03/21 12:13:41;;;;;;;30.17;20.15;;;17.20;65.00;;;;;;5010098;28;20042;-41
2022/03/21 12:16:17;;;;;;;39.15;20.58;;;17.30;65.60;;;;;;5015706;28;20137;-41
2022/03/21 12:18:58;;;;;;;32.75;20.27;;;17.40;63.00;;;;;;5014627;28;20124;-41
2022/03/21 12:21:24;;;;;;;35.33;20.45;;;17.40;61.50;;;;;;5015962;28;20128;-41
2022/03/21 12:24:13;;;;;;;34.05;20.83;;;17.40;63.30;;;;;;5014908;28;20113;-41
2022/03/21 12:26:49;;;;;;;31.75;20.13;;;17.50;63.10;;;;;;5015896;28;20089;-41
2022/03/21 12:29:32;;;;;;;28.67;19.48;;;17.70;63.50;;;;;;5015351;28;20046;-41
2022/03/21 12:32:23;;;;;;;32.20;19.40;;;17.90;65.00;;;;;;4996465;28;20407;-41
2022/03/21 12:34:50;;;;;;;31.50;20.20;;;18.00;59.20;;;;;;5012708;28;20085;-42
2022/03/21 12:37:25;;;;;;;30.85;20.88;;;17.90;60.80;;;;;;5006953;28;20042;-42
2022/03/21 12:39:53;;;;;;;31.92;20.30;;;17.80;58.40;;;;;;5012212;28;20129;-41
2022/03/21 12:42:21;;;;;;;34.35;21.38;;;17.70;59.00;;;;;;5013084;28;20050;-43
2022/03/21 12:44:48;;;;;;;34.42;20.30;;;17.60;58.30;;;;;;5009988;28;20052;-41
2022/03/21 12:47:17;;;;;;;32.50;20.27;;;17.60;59.60;;;;;;5008780;28;20538;-41
2022/03/21 12:49:48;;;;;;;35.78;21.88;;;17.70;60.80;;;;;;5006376;28;20060;-42
2022/03/21 12:52:26;;;;;;;30.85;20.13;;;17.90;60.20;;;;;;5014528;28;20441;-45
2022/03/21 12:54:53;;;;;;;32.70;20.95;;;18.10;60.90;;;;;;5014776;28;20121;-45
2022/03/21 12:57:21;;;;;;;33.05;20.67;;;18.00;59.90;;;;;;5012450;28;20377;-43
2022/03/21 12:59:48;;;;;;;30.27;21.17;;;18.10;60.30;;;;;;5015070;28;20121;-42